Time;durP1;ratioP1;P1;durP2;ratioP2;P2;SDS_P1;SDS_P2;PMS_P1;PMS_P2;Temp;Humidity;BMP_temperature;BMP_pressure;BME280_temperature;BME280_humidity;BME280_pressure;Samples;Min_cycle;Max_cycle;Signal;HPM_P1;HPM_P2
2021/04/13 00:00:01;;;;;;;6.57;1.23;;;;;;;;;;4975037;28;38658;-75
2021/04/13 00:02:27;;;;;;;7.13;1.70;;;;;;;;;;4983026;28;38246;-74
2021/04/13 00:05:01;;;;;;;8.87;1.77;;;;;;;;;;4986147;28;38920;-75
2021/04/13 00:07:29;;;;;;;10.20;0.90;;;;;;;;;;4977369;28;39657;-74
2021/04/13 00:09:56;;;;;;;15.03;1.50;;;;;;;;;;4985040;28;37562;-75
2021/04/13 00:12:24;;;;;;;7.00;1.60;;;;;;;;;;4989234;28;37230;-74
2021/04/13 00:14:53;;;;;;;8.30;1.93;;;;;;;;;;4992654;28;36796;-75
2021/04/13 00:17:21;;;;;;;9.53;2.10;;;;;;;;;;4984678;28;39755;-74
2021/04/13 00:19:56;;;;;;;9.13;1.77;;;;;;;;;;4985481;28;36838;-74
2021/04/13 00:22:22;;;;;;;6.30;1.40;;;;;;;;;;5000084;28;37215;-74
2021/04/13 00:24:49;;;;;;;9.47;1.90;;;;;;;;;;4988028;28;36238;-75
2021/04/13 00:27:16;;;;;;;6.57;1.20;;;;;;;;;;5003951;28;38437;-76
2021/04/13 00:29:43;;;;;;;10.87;1.93;;;;;;;;;;4985692;28;38386;-74
2021/04/13 00:32:10;;;;;;;10.93;2.03;;;;;;;;;;4991593;28;37745;-74
2021/04/13 00:34:51;;;;;;;9.73;1.23;;;;;;;;;;4990412;28;37780;-74
2021/04/13 00:37:32;;;;;;;13.50;1.40;;;;;;;;;;4989333;28;38434;-75
2021/04/13 00:40:14;;;;;;;6.10;1.20;;;;;;;;;;4985466;28;39606;-74
2021/04/13 00:42:42;;;;;;;6.75;1.40;;;;;;;;;;4994372;28;47051;-74
2021/04/13 00:45:24;;;;;;;6.40;1.20;;;;;;;;;;4982148;28;38076;-75
2021/04/13 00:47:52;;;;;;;9.95;1.40;;;;;;;;;;4985550;28;39531;-75
2021/04/13 00:50:24;;;;;;;11.37;1.27;;;;;;;;;;4989031;28;40433;-74
2021/04/13 00:52:52;;;;;;;6.60;1.55;;;;;;;;;;5002627;28;37151;-74
2021/04/13 00:55:20;;;;;;;8.80;1.40;;;;;;;;;;4982735;28;36792;-74
2021/04/13 00:57:49;;;;;;;14.43;2.23;;;;;;;;;;4993493;28;38819;-74
2021/04/13 01:00:21;;;;;;;11.00;1.77;;;;;;;;;;4993109;28;37003;-76
2021/04/13 01:02:47;;;;;;;13.30;1.80;;;;;;;;;;5001316;28;38552;-74
2021/04/13 01:05:20;;;;;;;10.07;1.87;;;;;;;;;;4983055;28;35615;-75
2021/04/13 01:07:48;;;;;;;10.83;1.57;;;;;;;;;;4983665;28;39076;-75
2021/04/13 01:10:22;;;;;;;12.60;2.77;;;;;;;;;;4981034;28;38449;-75
2021/04/13 01:12:51;;;;;;;12.37;1.70;;;;;;;;;;4984342;28;39123;-75
2021/04/13 01:15:18;;;;;;;8.03;1.50;;;;;;;;;;4979763;28;37918;-75
2021/04/13 01:17:45;;;;;;;9.63;1.93;;;;;;;;;;4986415;28;38977;-75
2021/04/13 01:20:23;;;;;;;10.33;1.60;;;;;;;;;;4983694;28;36965;-75
2021/04/13 01:22:59;;;;;;;8.03;1.43;;;;;;;;;;4992061;28;37294;-75
2021/04/13 01:25:29;;;;;;;5.90;2.20;;;;;;;;;;4981757;28;35749;-75
2021/04/13 01:28:22;;;;;;;14.13;1.60;;;;;;;;;;4973798;28;39244;-75
2021/04/13 01:30:51;;;;;;;9.15;1.52;;;;;;;;;;4988272;28;47264;-75
2021/04/13 01:33:29;;;;;;;9.20;1.70;;;;;;;;;;4999515;28;37506;-75
2021/04/13 01:35:58;;;;;;;11.53;1.80;;;;;;;;;;4981613;28;37182;-75
2021/04/13 01:43:32;;;;;;;11.83;1.60;;;;;;;;;;4978696;28;49046;-75
2021/04/13 01:46:00;;;;;;;11.13;1.83;;;;;;;;;;4997359;28;35720;-74
2021/04/13 01:48:27;;;;;;;11.90;1.63;;;;;;;;;;4979208;28;38333;-75
2021/04/13 01:51:02;;;;;;;10.50;1.47;;;;;;;;;;4983448;28;38832;-75
2021/04/13 01:53:28;;;;;;;8.20;1.60;;;;;;;;;;4994518;28;47334;-75
2021/04/13 01:55:58;;;;;;;13.83;2.33;;;;;;;;;;4986699;28;37073;-75
2021/04/13 01:58:30;;;;;;;11.63;1.80;;;;;;;;;;4979353;28;38907;-75
2021/04/13 02:01:09;;;;;;;13.65;1.80;;;;;;;;;;4996347;28;37194;-76
2021/04/13 02:03:35;;;;;;;11.23;1.47;;;;;;;;;;4985088;28;48913;-74
2021/04/13 02:06:05;;;;;;;9.17;1.50;;;;;;;;;;5003248;28;36030;-75
2021/04/13 02:08:39;;;;;;;6.47;1.80;;;;;;;;;;4984533;28;39810;-75
2021/04/13 02:11:08;;;;;;;11.20;1.40;;;;;;;;;;4978156;28;38293;-75
2021/04/13 02:13:37;;;;;;;10.40;1.97;;;;;;;;;;4981865;28;38392;-75
2021/04/13 02:16:03;;;;;;;10.63;2.00;;;;;;;;;;4988213;28;36954;-75
2021/04/13 02:18:41;;;;;;;6.43;1.30;;;;;;;;;;4991541;28;40877;-74
2021/04/13 02:21:30;;;;;;;10.57;1.50;;;;;;;;;;4991660;28;40364;-75
2021/04/13 02:24:01;;;;;;;9.37;1.83;;;;;;;;;;4981821;28;38149;-75
2021/04/13 02:26:27;;;;;;;7.20;1.60;;;;;;;;;;4980977;28;46943;-75
2021/04/13 02:28:55;;;;;;;8.27;1.60;;;;;;;;;;4979820;28;38654;-74
2021/04/13 02:31:48;;;;;;;8.03;1.70;;;;;;;;;;4983126;28;38032;-74
2021/04/13 02:34:14;;;;;;;10.73;1.42;;;;;;;;;;4984256;28;38912;-75
2021/04/13 02:36:41;;;;;;;11.70;1.70;;;;;;;;;;4990326;28;35708;-75
2021/04/13 02:39:12;;;;;;;12.47;1.83;;;;;;;;;;4995776;28;37937;-75
2021/04/13 02:41:45;;;;;;;5.67;1.37;;;;;;;;;;4997492;28;38183;-75
2021/04/13 02:44:14;;;;;;;8.43;1.90;;;;;;;;;;4978494;28;37849;-75
2021/04/13 02:46:40;;;;;;;10.87;1.80;;;;;;;;;;4987000;28;36808;-75
2021/04/13 02:49:12;;;;;;;13.30;2.60;;;;;;;;;;4985317;28;40462;-75
2021/04/13 02:51:41;;;;;;;10.10;2.33;;;;;;;;;;4996087;28;38831;-75
2021/04/13 02:54:13;;;;;;;10.63;1.97;;;;;;;;;;4971724;28;39729;-75
2021/04/13 02:56:44;;;;;;;4.10;1.90;;;;;;;;;;4992940;28;36192;-75
2021/04/13 02:59:13;;;;;;;6.80;2.07;;;;;;;;;;4996334;28;37674;-75
2021/04/13 03:01:42;;;;;;;11.40;2.67;;;;;;;;;;4986011;28;38703;-75
2021/04/13 03:04:09;;;;;;;10.37;2.40;;;;;;;;;;4984075;28;38436;-75
2021/04/13 03:06:37;;;;;;;8.33;2.20;;;;;;;;;;4984515;28;36939;-75
2021/04/13 03:09:05;;;;;;;13.30;2.73;;;;;;;;;;4997284;28;37883;-75
2021/04/13 03:11:31;;;;;;;13.33;2.60;;;;;;;;;;4984440;28;38532;-76
2021/04/13 03:13:59;;;;;;;14.80;2.53;;;;;;;;;;4980856;28;37285;-75
2021/04/13 03:16:51;;;;;;;12.70;2.20;;;;;;;;;;4988516;28;37805;-75
2021/04/13 03:19:20;;;;;;;8.20;2.17;;;;;;;;;;4978107;28;38785;-75
2021/04/13 03:21:50;;;;;;;9.50;2.37;;;;;;;;;;4984660;28;38433;-75
2021/04/13 03:24:19;;;;;;;8.80;2.07;;;;;;;;;;4996890;28;37966;-75
2021/04/13 03:26:47;;;;;;;14.33;2.27;;;;;;;;;;4982248;28;37467;-75
2021/04/13 03:29:23;;;;;;;11.30;2.10;;;;;;;;;;4979676;28;39302;-75
2021/04/13 03:31:49;;;;;;;7.93;2.33;;;;;;;;;;5001568;28;38541;-76
2021/04/13 03:34:17;;;;;;;16.30;2.10;;;;;;;;;;4990484;28;37344;-75
2021/04/13 03:36:44;;;;;;;13.87;2.33;;;;;;;;;;4978570;28;37124;-75
2021/04/13 03:39:12;;;;;;;11.67;1.87;;;;;;;;;;4981676;28;38850;-75
2021/04/13 03:41:43;;;;;;;9.13;2.67;;;;;;;;;;4979720;28;38105;-75
2021/04/13 03:44:10;;;;;;;13.90;2.40;;;;;;;;;;4979944;28;38099;-75
2021/04/13 03:46:37;;;;;;;11.37;1.90;;;;;;;;;;4982828;28;36906;-75
2021/04/13 03:49:07;;;;;;;11.03;1.97;;;;;;;;;;4991940;28;38345;-75
2021/04/13 03:51:36;;;;;;;12.30;1.70;;;;;;;;;;4982259;28;40402;-75
2021/04/13 03:54:17;;;;;;;14.33;2.17;;;;;;;;;;4994617;28;36711;-75
2021/04/13 03:56:43;;;;;;;12.23;1.93;;;;;;;;;;4988281;28;38025;-76
2021/04/13 03:59:16;;;;;;;16.03;2.37;;;;;;;;;;4984380;28;39777;-75
2021/04/13 04:01:43;;;;;;;14.53;1.83;;;;;;;;;;4986165;28;38303;-75
2021/04/13 04:04:19;;;;;;;8.83;2.00;;;;;;;;;;4985321;28;37007;-75
2021/04/13 04:06:52;;;;;;;8.13;1.80;;;;;;;;;;4999424;28;36329;-75
2021/04/13 04:09:33;;;;;;;15.35;2.55;;;;;;;;;;4998213;28;37827;-75
2021/04/13 04:12:01;;;;;;;16.00;2.43;;;;;;;;;;4979994;28;38576;-75
2021/04/13 04:14:29;;;;;;;10.33;1.97;;;;;;;;;;4986724;28;47308;-75
2021/04/13 04:17:12;;;;;;;10.60;2.33;;;;;;;;;;5001787;28;35529;-75
2021/04/13 04:19:39;;;;;;;8.27;2.07;;;;;;;;;;4983626;28;48752;-75
2021/04/13 04:22:07;;;;;;;8.53;2.27;;;;;;;;;;4982606;28;39125;-75
2021/04/13 04:24:35;;;;;;;9.97;2.57;;;;;;;;;;5001674;28;38565;-75
2021/04/13 04:27:03;;;;;;;8.20;2.40;;;;;;;;;;4982194;28;36482;-75
2021/04/13 04:29:30;;;;;;;9.57;1.90;;;;;;;;;;4978256;28;40143;-75
2021/04/13 04:31:56;;;;;;;12.80;2.60;;;;;;;;;;4997604;28;37795;-75
2021/04/13 04:34:23;;;;;;;17.33;2.80;;;;;;;;;;5002931;28;36825;-75
2021/04/13 04:36:50;;;;;;;12.73;2.27;;;;;;;;;;4998024;28;35609;-75
2021/04/13 04:39:33;;;;;;;6.27;2.07;;;;;;;;;;4981121;28;39044;-75
2021/04/13 04:42:06;;;;;;;11.33;1.90;;;;;;;;;;4986610;28;38649;-78
2021/04/13 04:44:33;;;;;;;13.63;2.53;;;;;;;;;;4983666;28;48382;-75
2021/04/13 04:47:00;;;;;;;10.87;2.00;;;;;;;;;;4983042;28;35662;-75
2021/04/13 04:49:37;;;;;;;12.30;1.90;;;;;;;;;;4998009;28;38170;-76
2021/04/13 04:52:03;;;;;;;11.00;1.80;;;;;;;;;;4983466;28;39358;-76
2021/04/13 04:54:30;;;;;;;7.17;2.13;;;;;;;;;;4980478;28;38111;-75
2021/04/13 04:56:56;;;;;;;10.90;2.27;;;;;;;;;;4984652;28;37083;-74
2021/04/13 04:59:23;;;;;;;7.40;1.37;;;;;;;;;;4994429;28;37426;-75
2021/04/13 05:01:51;;;;;;;6.40;1.30;;;;;;;;;;4983829;28;38284;-76
2021/04/13 05:04:18;;;;;;;8.40;1.63;;;;;;;;;;4991129;28;38408;-75
2021/04/13 05:06:44;;;;;;;10.27;1.60;;;;;;;;;;4983182;28;39060;-75
2021/04/13 05:09:10;;;;;;;9.87;1.33;;;;;;;;;;4992573;28;38795;-75
2021/04/13 05:11:37;;;;;;;9.77;1.50;;;;;;;;;;4982823;28;37559;-76
2021/04/13 05:14:03;;;;;;;4.37;1.03;;;;;;;;;;4981148;28;38251;-76
2021/04/13 05:16:29;;;;;;;8.70;1.50;;;;;;;;;;5000792;28;36214;-78
2021/04/13 05:18:56;;;;;;;11.60;1.87;;;;;;;;;;4986689;28;38853;-75
2021/04/13 05:21:22;;;;;;;10.77;1.70;;;;;;;;;;4975441;28;38453;-76
2021/04/13 05:23:48;;;;;;;8.70;1.70;;;;;;;;;;4980213;28;39363;-76
2021/04/13 05:26:15;;;;;;;10.93;2.10;;;;;;;;;;4983276;28;36525;-76
2021/04/13 05:28:41;;;;;;;9.67;1.53;;;;;;;;;;4994311;28;38249;-75
2021/04/13 05:31:07;;;;;;;10.37;1.37;;;;;;;;;;4989026;28;37895;-75
2021/04/13 05:33:34;;;;;;;5.43;1.10;;;;;;;;;;4987257;28;39252;-75
2021/04/13 05:36:01;;;;;;;12.60;1.10;;;;;;;;;;4985335;28;36952;-75
2021/04/13 05:38:29;;;;;;;7.13;1.40;;;;;;;;;;4984097;28;40469;-76
2021/04/13 05:40:58;;;;;;;6.87;1.27;;;;;;;;;;4984442;28;38369;-75
2021/04/13 05:43:25;;;;;;;5.63;1.50;;;;;;;;;;5000387;28;37162;-75
2021/04/13 05:45:52;;;;;;;9.37;2.00;;;;;;;;;;4984464;28;35820;-75
2021/04/13 05:48:19;;;;;;;5.83;1.10;;;;;;;;;;4998655;28;37562;-75
2021/04/13 05:50:46;;;;;;;7.40;1.40;;;;;;;;;;4988715;28;38264;-75
2021/04/13 05:53:13;;;;;;;3.60;0.87;;;;;;;;;;4982197;28;38392;-75
2021/04/13 05:55:40;;;;;;;1.97;0.73;;;;;;;;;;4981980;28;37275;-76
2021/04/13 05:58:17;;;;;;;4.13;1.13;;;;;;;;;;4997581;28;39303;-75
2021/04/13 06:00:45;;;;;;;7.30;1.13;;;;;;;;;;4979539;28;38848;-75
2021/04/13 06:03:11;;;;;;;6.23;1.77;;;;;;;;;;4996785;28;36754;-76
2021/04/13 06:05:38;;;;;;;7.27;1.20;;;;;;;;;;4979993;28;37114;-75
2021/04/13 06:08:05;;;;;;;10.67;1.13;;;;;;;;;;4978452;28;37687;-75
2021/04/13 06:10:31;;;;;;;6.87;0.93;;;;;;;;;;4982409;28;37888;-75
2021/04/13 06:13:01;;;;;;;4.50;1.30;;;;;;;;;;5000963;28;38661;-75
2021/04/13 06:15:28;;;;;;;6.93;1.17;;;;;;;;;;4982098;28;47255;-76
2021/04/13 06:17:55;;;;;;;4.57;0.90;;;;;;;;;;4986458;28;39056;-75
2021/04/13 06:20:22;;;;;;;8.23;1.50;;;;;;;;;;4984719;28;38216;-75
2021/04/13 06:22:49;;;;;;;4.90;0.97;;;;;;;;;;4986629;28;37470;-75
2021/04/13 06:25:17;;;;;;;4.80;1.00;;;;;;;;;;4986662;28;37025;-75
2021/04/13 06:27:43;;;;;;;6.27;1.20;;;;;;;;;;4985175;28;37967;-75
2021/04/13 06:30:11;;;;;;;11.13;0.90;;;;;;;;;;4977546;28;38604;-76
2021/04/13 06:32:37;;;;;;;5.40;1.20;;;;;;;;;;4992950;28;36934;-74
2021/04/13 06:35:04;;;;;;;10.30;1.33;;;;;;;;;;4983227;28;36713;-76
2021/04/13 06:37:30;;;;;;;6.43;1.13;;;;;;;;;;4981593;28;38877;-76
2021/04/13 06:39:57;;;;;;;5.80;0.87;;;;;;;;;;4988418;28;38255;-75
2021/04/13 06:42:42;;;;;;;6.27;1.13;;;;;;;;;;4986298;28;38413;-77
2021/04/13 06:45:13;;;;;;;6.13;1.60;;;;;;;;;;4984718;28;35969;-76
2021/04/13 06:47:57;;;;;;;15.47;1.40;;;;;;;;;;4991976;28;38880;-76
2021/04/13 06:50:30;;;;;;;6.03;0.90;;;;;;;;;;4991199;28;37916;-76
2021/04/13 06:53:01;;;;;;;4.97;1.05;;;;;;;;;;4986397;28;37565;-76
2021/04/13 06:55:31;;;;;;;8.03;1.07;;;;;;;;;;5001522;28;47334;-76
2021/04/13 06:58:20;;;;;;;10.50;1.63;;;;;;;;;;4984762;28;38668;-76
2021/04/13 07:00:55;;;;;;;8.97;1.27;;;;;;;;;;4978060;28;47184;-76
2021/04/13 07:03:32;;;;;;;5.83;1.10;;;;;;;;;;4985808;28;37010;-76
2021/04/13 07:06:14;;;;;;;5.67;0.97;;;;;;;;;;4995389;28;36005;-77
2021/04/13 07:08:43;;;;;;;7.90;1.20;;;;;;;;;;4991563;28;46932;-77
2021/04/13 07:11:30;;;;;;;8.30;1.67;;;;;;;;;;4998897;28;38407;-77
2021/04/13 07:13:59;;;;;;;8.40;1.13;;;;;;;;;;4980248;28;38222;-78
2021/04/13 07:16:31;;;;;;;7.53;0.93;;;;;;;;;;4977757;28;37690;-77
2021/04/13 07:19:16;;;;;;;5.80;1.02;;;;;;;;;;4990432;28;37825;-77
2021/04/13 07:21:54;;;;;;;4.90;0.73;;;;;;;;;;4984769;28;48852;-77
2021/04/13 07:24:20;;;;;;;3.33;0.97;;;;;;;;;;4976920;28;39408;-76
2021/04/13 07:26:52;;;;;;;7.70;1.13;;;;;;;;;;5000863;28;37213;-77
2021/04/13 07:29:25;;;;;;;4.63;0.97;;;;;;;;;;5009947;28;37629;-77
2021/04/13 07:32:11;;;;;;;2.97;0.80;;;;;;;;;;4991502;28;38546;-76
2021/04/13 07:34:38;;;;;;;5.30;0.90;;;;;;;;;;5008149;28;46972;-77
2021/04/13 07:37:07;;;;;;;6.87;1.10;;;;;;;;;;4988127;28;35977;-76
2021/04/13 07:39:34;;;;;;;7.63;1.80;;;;;;;;;;4987544;28;38761;-77
2021/04/13 07:42:05;;;;;;;6.07;1.23;;;;;;;;;;4973904;28;38236;-77
2021/04/13 07:44:37;;;;;;;4.77;1.27;;;;;;;;;;4990589;28;48523;-78
2021/04/13 07:47:22;;;;;;;12.07;1.40;;;;;;;;;;4990927;28;37821;-77
2021/04/13 07:49:53;;;;;;;7.23;1.03;;;;;;;;;;5007287;28;39109;-77
2021/04/13 07:52:26;;;;;;;4.57;0.67;;;;;;;;;;4997867;28;38375;-77
2021/04/13 07:54:52;;;;;;;;;;;;;;;;;;4998856;28;38193;-77
2021/04/13 07:57:20;;;;;;;9.23;1.17;;;;;;;;;;5001924;28;35912;-77
2021/04/13 08:00:04;;;;;;;6.40;1.00;;;;;;;;;;5007864;28;37891;-77
2021/04/13 08:02:30;;;;;;;5.23;1.03;;;;;;;;;;4982396;28;49159;-76
2021/04/13 08:04:58;;;;;;;5.33;1.30;;;;;;;;;;5010166;28;37402;-77
2021/04/13 08:07:45;;;;;;;4.20;1.40;;;;;;;;;;4992100;28;36518;-78
2021/04/13 08:10:11;;;;;;;6.30;0.83;;;;;;;;;;4988063;28;38558;-78
2021/04/13 08:12:52;;;;;;;6.10;0.77;;;;;;;;;;4990735;28;38412;-78
2021/04/13 08:15:20;;;;;;;4.00;0.73;;;;;;;;;;4993313;28;38043;-79
2021/04/13 08:17:55;;;;;;;4.83;1.40;;;;;;;;;;4991195;28;38456;-77
2021/04/13 08:20:27;;;;;;;3.40;0.77;;;;;;;;;;5003300;28;39162;-77
2021/04/13 08:22:59;;;;;;;3.58;0.65;;;;;;;;;;4990953;28;39154;-78
2021/04/13 08:25:45;;;;;;;8.43;0.70;;;;;;;;;;4990036;28;36819;-77
2021/04/13 08:28:21;;;;;;;9.33;1.20;;;;;;;;;;4975975;28;37213;-77
2021/04/13 08:34:10;;;;;;;6.60;1.00;;;;;;;;;;4982295;28;49785;-78
2021/04/13 08:36:50;;;;;;;7.13;1.03;;;;;;;;;;5006333;28;46926;-78
2021/04/13 08:39:24;;;;;;;5.10;0.90;;;;;;;;;;4976239;28;37051;-78
2021/04/13 08:42:06;;;;;;;3.77;0.87;;;;;;;;;;4988167;28;38614;-78
2021/04/13 08:44:47;;;;;;;2.63;1.00;;;;;;;;;;4977386;28;48193;-77
2021/04/13 08:47:17;;;;;;;4.40;0.70;;;;;;;;;;5004109;28;37882;-78
2021/04/13 08:49:47;;;;;;;2.27;0.70;;;;;;;;;;4998326;28;35862;-78
2021/04/13 08:52:16;;;;;;;5.20;1.00;;;;;;;;;;4990753;28;38967;-80
2021/04/13 08:54:48;;;;;;;7.23;1.10;;;;;;;;;;4990248;28;38919;-78
2021/04/13 08:57:17;;;;;;;4.90;1.10;;;;;;;;;;4987767;28;38638;-78
2021/04/13 08:59:45;;;;;;;3.65;0.88;;;;;;;;;;4990136;28;37579;-77
2021/04/13 09:02:12;;;;;;;3.80;0.73;;;;;;;;;;4991992;28;39997;-77
2021/04/13 09:04:38;;;;;;;6.18;0.90;;;;;;;;;;5002642;28;37153;-80
2021/04/13 09:07:11;;;;;;;2.72;0.85;;;;;;;;;;4990340;28;38002;-77
2021/04/13 09:09:42;;;;;;;5.30;1.05;;;;;;;;;;4988163;28;37948;-77
2021/04/13 09:12:23;;;;;;;5.68;1.10;;;;;;;;;;4978885;28;40108;-77
2021/04/13 09:15:01;;;;;;;5.22;1.00;;;;;;;;;;4990484;28;37707;-77
2021/04/13 09:17:32;;;;;;;5.18;0.90;;;;;;;;;;4983981;28;47799;-77
2021/04/13 09:20:05;;;;;;;3.13;0.77;;;;;;;;;;4998010;28;35871;-77
2021/04/13 09:22:31;;;;;;;;;;;;;;;;;;4989043;28;48729;-77
2021/04/13 09:25:14;;;;;;;6.60;0.85;;;;;;;;;;5006163;28;39731;-77
2021/04/13 09:27:42;;;;;;;5.32;1.00;;;;;;;;;;4992741;28;48630;-77
2021/04/13 09:30:11;;;;;;;3.95;1.00;;;;;;;;;;4992312;28;35802;-77
2021/04/13 09:32:43;;;;;;;4.28;0.93;;;;;;;;;;4982580;28;39537;-78
2021/04/13 09:35:28;;;;;;;4.65;1.00;;;;;;;;;;4997275;28;38460;-78
2021/04/13 09:38:12;;;;;;;5.75;1.35;;;;;;;;;;4981761;28;37793;-78
2021/04/13 09:40:58;;;;;;;7.43;1.05;;;;;;;;;;4991615;28;47219;-78
2021/04/13 09:43:32;;;;;;;3.08;0.88;;;;;;;;;;4996008;28;38069;-78
2021/04/13 09:46:01;;;;;;;4.88;1.70;;;;;;;;;;4997715;28;38258;-78
2021/04/13 09:48:30;;;;;;;7.05;1.00;;;;;;;;;;4998956;28;38203;-75
2021/04/13 09:51:19;;;;;;;4.45;1.10;;;;;;;;;;4989200;28;37022;-77
2021/04/13 09:53:56;;;;;;;6.32;1.20;;;;;;;;;;4986283;28;49046;-78
2021/04/13 09:56:28;;;;;;;3.80;1.00;;;;;;;;;;4992869;28;37621;-78
2021/04/13 09:59:13;;;;;;;2.70;0.90;;;;;;;;;;4995673;28;36429;-78
2021/04/13 10:01:59;;;;;;;2.40;0.80;;;;;;;;;;4987247;28;47209;-78
2021/04/13 10:04:36;;;;;;;2.85;1.38;;;;;;;;;;5027480;28;39732;-78
2021/04/13 10:07:04;;;;;;;5.75;0.57;;;;;;;;;;4988273;28;38591;-77
2021/04/13 10:09:33;;;;;;;2.80;0.80;;;;;;;;;;5002844;28;37292;-77
2021/04/13 10:12:24;;;;;;;5.13;0.95;;;;;;;;;;5005104;28;35530;-78
2021/04/13 10:14:50;;;;;;;5.30;1.08;;;;;;;;;;4998672;28;46816;-76
2021/04/13 10:17:35;;;;;;;2.38;0.80;;;;;;;;;;4992830;28;36790;-78
2021/04/13 10:20:26;;;;;;;2.20;0.85;;;;;;;;;;4986701;28;38275;-77
2021/04/13 10:22:55;;;;;;;3.97;1.15;;;;;;;;;;4991716;28;36263;-78
2021/04/13 10:25:37;;;;;;;6.38;1.05;;;;;;;;;;4983553;28;38452;-78
2021/04/13 10:28:22;;;;;;;3.33;0.70;;;;;;;;;;5004724;28;39556;-78
2021/04/13 10:30:54;;;;;;;4.57;1.15;;;;;;;;;;4990442;28;38054;-77
2021/04/13 10:33:39;;;;;;;1.75;0.80;;;;;;;;;;4982714;28;37899;-78
2021/04/13 10:36:24;;;;;;;6.28;1.13;;;;;;;;;;4998134;28;39005;-78
2021/04/13 10:38:56;;;;;;;4.13;0.80;;;;;;;;;;4989530;28;39609;-78
2021/04/13 10:41:28;;;;;;;5.70;1.02;;;;;;;;;;5006961;28;37372;-78
2021/04/13 10:44:13;;;;;;;4.78;0.93;;;;;;;;;;4994430;28;36003;-78
2021/04/13 10:46:45;;;;;;;2.67;0.88;;;;;;;;;;5005190;28;47566;-78
2021/04/13 10:49:32;;;;;;;2.58;0.80;;;;;;;;;;4984166;28;39540;-77
2021/04/13 10:52:18;;;;;;;4.78;1.10;;;;;;;;;;5007043;28;36890;-79
2021/04/13 10:54:57;;;;;;;3.35;0.80;;;;;;;;;;4992330;28;49570;-79
2021/04/13 10:57:35;;;;;;;8.70;1.15;;;;;;;;;;4993011;28;39469;-77
2021/04/13 11:00:05;;;;;;;2.92;1.08;;;;;;;;;;4992533;28;39497;-77
2021/04/13 11:02:50;;;;;;;4.40;0.85;;;;;;;;;;4986714;28;49274;-80
2021/04/13 11:05:36;;;;;;;3.92;0.90;;;;;;;;;;4989330;28;36994;-79
2021/04/13 11:08:17;;;;;;;4.15;1.00;;;;;;;;;;5002554;28;38357;-79
2021/04/13 11:11:22;;;;;;;4.43;1.17;;;;;;;;;;5006814;28;46728;-79
2021/04/13 11:14:19;;;;;;;5.38;1.13;;;;;;;;;;4975651;28;47039;-77
2021/04/13 11:16:57;;;;;;;6.68;1.30;;;;;;;;;;4979186;28;49015;-78
2021/04/13 11:19:47;;;;;;;5.20;1.70;;;;;;;;;;4981682;28;36342;-79
2021/04/13 11:22:32;;;;;;;3.53;1.25;;;;;;;;;;4987398;28;39017;-79
2021/04/13 11:25:10;;;;;;;3.85;1.27;;;;;;;;;;4994844;28;36886;-79
2021/04/13 11:28:06;;;;;;;4.38;1.45;;;;;;;;;;4994340;28;49294;-78
2021/04/13 11:30:51;;;;;;;2.97;1.25;;;;;;;;;;4984547;28;48990;-78
2021/04/13 11:33:24;;;;;;;4.40;1.20;;;;;;;;;;4977585;28;38015;-78
2021/04/13 11:35:52;;;;;;;2.88;1.10;;;;;;;;;;4983980;28;38192;-78
2021/04/13 11:38:33;;;;;;;5.55;1.13;;;;;;;;;;4993854;28;36371;-78
2021/04/13 11:41:12;;;;;;;5.28;1.17;;;;;;;;;;4985394;28;38479;-77
2021/04/13 11:43:42;;;;;;;2.13;1.00;;;;;;;;;;4995629;28;47108;-77
2021/04/13 11:46:14;;;;;;;4.55;0.95;;;;;;;;;;4983833;28;38857;-78
2021/04/13 11:49:00;;;;;;;3.17;1.13;;;;;;;;;;4983995;28;36809;-78
2021/04/13 11:51:30;;;;;;;3.67;1.30;;;;;;;;;;4986379;28;47207;-77
2021/04/13 11:53:57;;;;;;;3.13;1.15;;;;;;;;;;5000510;28;37402;-79
2021/04/13 11:56:23;;;;;;;1.95;0.90;;;;;;;;;;4990710;28;38375;-81
2021/04/13 11:59:08;;;;;;;1.23;0.70;;;;;;;;;;5003310;28;35737;-80
2021/04/13 12:01:36;;;;;;;4.18;1.40;;;;;;;;;;5011910;28;46950;-79
2021/04/13 12:04:05;;;;;;;3.75;1.17;;;;;;;;;;5004242;28;37499;-80
2021/04/13 12:06:58;;;;;;;4.43;1.25;;;;;;;;;;5006766;28;36967;-80
2021/04/13 12:09:39;;;;;;;3.75;0.90;;;;;;;;;;4999206;28;36016;-80
2021/04/13 12:12:07;;;;;;;3.38;1.20;;;;;;;;;;5012867;28;40049;-80
2021/04/13 12:14:39;;;;;;;3.70;0.98;;;;;;;;;;5003152;28;37518;-80
2021/04/13 12:17:08;;;;;;;3.17;0.95;;;;;;;;;;5005324;28;37307;-80
2021/04/13 12:19:34;;;;;;;2.75;0.98;;;;;;;;;;4994416;28;38005;-80
2021/04/13 12:22:19;;;;;;;2.97;1.15;;;;;;;;;;5017034;28;39696;-80
2021/04/13 12:24:47;;;;;;;2.25;1.15;;;;;;;;;;4996709;28;49595;-82
2021/04/13 12:27:36;;;;;;;3.05;1.25;;;;;;;;;;4995424;28;39163;-82
2021/04/13 12:30:21;;;;;;;4.28;1.23;;;;;;;;;;5012010;28;35996;-82
2021/04/13 12:32:48;;;;;;;5.20;1.30;;;;;;;;;;5012060;28;20769;-82
2021/04/13 12:35:34;;;;;;;3.47;1.05;;;;;;;;;;4990224;28;39616;-81
2021/04/13 12:38:01;;;;;;;2.70;1.10;;;;;;;;;;5000365;28;36838;-81
2021/04/13 12:40:29;;;;;;;4.13;0.90;;;;;;;;;;4991905;28;47369;-79
2021/04/13 12:42:58;;;;;;;4.75;0.90;;;;;;;;;;5010566;28;37774;-81
2021/04/13 12:45:27;;;;;;;5.18;1.20;;;;;;;;;;4991610;28;37577;-80
2021/04/13 12:48:09;;;;;;;4.38;1.20;;;;;;;;;;5012065;28;37151;-82
2021/04/13 12:50:38;;;;;;;1.90;1.00;;;;;;;;;;5005707;28;47245;-80
2021/04/13 12:53:09;;;;;;;2.17;1.00;;;;;;;;;;4993806;28;38804;-80
2021/04/13 12:55:35;;;;;;;2.85;1.00;;;;;;;;;;5004569;28;38872;-80
2021/04/13 12:58:08;;;;;;;2.17;0.85;;;;;;;;;;5004737;28;37435;-80
2021/04/13 13:00:36;;;;;;;2.58;0.98;;;;;;;;;;5010431;28;36062;-81
2021/04/13 13:03:12;;;;;;;2.05;0.93;;;;;;;;;;4995719;28;39833;-81
2021/04/13 13:05:39;;;;;;;1.48;0.80;;;;;;;;;;4988537;28;40017;-81
2021/04/13 13:08:06;;;;;;;3.97;0.90;;;;;;;;;;5011453;28;37229;-80
2021/04/13 13:10:35;;;;;;;3.67;1.25;;;;;;;;;;5010556;28;35687;-79
2021/04/13 13:13:10;;;;;;;2.70;1.20;;;;;;;;;;5004953;28;37703;-81
2021/04/13 13:15:37;;;;;;;3.30;1.08;;;;;;;;;;5013133;28;47256;-80
2021/04/13 13:18:15;;;;;;;6.80;1.50;;;;;;;;;;5009033;28;36994;-80
2021/04/13 13:20:42;;;;;;;3.05;1.02;;;;;;;;;;4999002;28;37090;-80
2021/04/13 13:23:16;;;;;;;3.75;0.90;;;;;;;;;;4999251;28;39391;-80
2021/04/13 13:25:43;;;;;;;5.72;1.25;;;;;;;;;;4989775;28;39518;-80
2021/04/13 13:28:19;;;;;;;2.80;1.00;;;;;;;;;;4994765;28;38845;-80
2021/04/13 13:30:46;;;;;;;2.97;1.30;;;;;;;;;;4996965;28;35758;-80
2021/04/13 13:33:13;;;;;;;3.53;1.20;;;;;;;;;;5008685;28;37834;-80
2021/04/13 13:35:40;;;;;;;1.83;1.00;;;;;;;;;;5002904;28;37387;-80
2021/04/13 13:38:06;;;;;;;2.83;0.90;;;;;;;;;;4994294;28;37520;-80
2021/04/13 13:40:35;;;;;;;2.55;1.17;;;;;;;;;;5010148;28;37105;-78
2021/04/13 13:43:08;;;;;;;2.95;1.23;;;;;;;;;;5004564;28;38584;-79
2021/04/13 13:45:36;;;;;;;4.68;1.17;;;;;;;;;;4992473;28;46961;-80
2021/04/13 13:48:14;;;;;;;5.28;0.90;;;;;;;;;;4987471;28;37314;-77
2021/04/13 13:50:44;;;;;;;3.55;1.33;;;;;;;;;;4998998;28;35815;-78
2021/04/13 13:53:18;;;;;;;2.65;1.02;;;;;;;;;;4985253;28;37786;-78
2021/04/13 13:55:54;;;;;;;2.22;1.00;;;;;;;;;;4986857;28;38783;-78
2021/04/13 13:58:23;;;;;;;2.53;0.93;;;;;;;;;;4988143;28;39406;-78
2021/04/13 14:00:54;;;;;;;1.33;1.00;;;;;;;;;;5001463;28;36775;-78
2021/04/13 14:03:38;;;;;;;1.98;1.15;;;;;;;;;;4996150;28;37952;-79
2021/04/13 14:06:14;;;;;;;2.13;1.27;;;;;;;;;;4993228;28;36989;-77
2021/04/13 14:08:42;;;;;;;2.58;0.90;;;;;;;;;;5004087;28;37036;-80
2021/04/13 14:11:13;;;;;;;1.50;1.00;;;;;;;;;;4999147;28;35392;-79
2021/04/13 14:13:41;;;;;;;2.13;0.73;;;;;;;;;;4989230;28;38817;-79
2021/04/13 14:16:26;;;;;;;2.22;0.88;;;;;;;;;;5007208;28;38038;-81
2021/04/13 14:18:54;;;;;;;1.83;1.05;;;;;;;;;;5010502;28;37528;-80
2021/04/13 14:21:21;;;;;;;1.80;0.95;;;;;;;;;;5000747;28;36238;-79
2021/04/13 14:23:51;;;;;;;2.85;1.05;;;;;;;;;;4982488;28;38505;-77
2021/04/13 14:26:27;;;;;;;3.63;1.10;;;;;;;;;;4995873;28;38277;-80
2021/04/13 14:29:14;;;;;;;2.42;1.10;;;;;;;;;;4977852;28;37925;-77
2021/04/13 14:31:42;;;;;;;2.65;0.80;;;;;;;;;;4973053;28;47275;-77
2021/04/13 14:34:09;;;;;;;2.55;1.15;;;;;;;;;;4982383;28;39912;-78
2021/04/13 14:36:36;;;;;;;1.67;0.88;;;;;;;;;;4992764;28;40433;-77
2021/04/13 14:39:05;;;;;;;2.45;1.30;;;;;;;;;;4990198;28;40491;-79
2021/04/13 14:41:31;;;;;;;3.22;1.75;;;;;;;;;;4980471;28;38456;-77
2021/04/13 14:43:57;;;;;;;2.92;1.45;;;;;;;;;;4998976;28;40474;-79
2021/04/13 14:46:24;;;;;;;3.22;1.48;;;;;;;;;;4978421;28;40801;-77
2021/04/13 14:48:50;;;;;;;3.30;1.15;;;;;;;;;;4976803;28;36944;-78
2021/04/13 14:51:17;;;;;;;2.58;1.13;;;;;;;;;;4973084;28;37752;-77
2021/04/13 14:53:43;;;;;;;2.05;1.02;;;;;;;;;;4981526;28;38479;-78
2021/04/13 14:56:17;;;;;;;1.77;1.00;;;;;;;;;;4977438;28;38702;-78
2021/04/13 14:58:44;;;;;;;3.20;1.20;;;;;;;;;;4997998;28;40178;-77
2021/04/13 15:01:11;;;;;;;2.97;1.10;;;;;;;;;;4993177;28;38168;-78
2021/04/13 15:03:37;;;;;;;1.85;0.80;;;;;;;;;;5000054;28;37535;-78
2021/04/13 15:06:04;;;;;;;1.05;0.80;;;;;;;;;;4979419;28;38561;-78
2021/04/13 15:08:30;;;;;;;1.48;0.93;;;;;;;;;;5000728;28;37960;-79
2021/04/13 15:10:57;;;;;;;3.55;1.20;;;;;;;;;;4988947;28;37794;-78
2021/04/13 15:13:24;;;;;;;1.45;1.10;;;;;;;;;;4989524;28;38978;-80
2021/04/13 15:16:01;;;;;;;2.88;1.02;;;;;;;;;;5014317;28;38429;-81
2021/04/13 15:18:28;;;;;;;1.67;1.20;;;;;;;;;;5000799;28;39968;-79